Pagrindinis puslapis
METAR-TAF:

METAR-TAF

Oro uostai :

Puerto Karenjas, Kolumbija

platuma: 06-10N, ilguma: 067-30W, Aukštis: 55 m

Dabartinis oras

Ataskaita buvo paskelbta 1 valandą ir 20 minutes, ne 18:00 UTC
Ramus vėjas
Temperatūra 32°C
Drėgmė 59%
Slėgis 1008 hPa
Matomumas 10 km arba daugiau
Išsisklaidę debesys ne aukštis 2000 ft

METAR: SKPC 131800Z 00000KT 9999 SCT020 32/23 A2977

Laikas: 14:20 (19:20 UTC)


TAF: trūkstamas

Orai ataskaitas ir orų prognozės (METAR, TAF).

turimą stotys yra geltonos ir raudonos taškus žemėlapyje.

Perkelti pele per norėdami pamatyti stoties vardą.

Tada spustelėkite, norėdami matyti oro stebėjimo ir prognozės.

Norėdami pakeisti žemėlapį: spustelėkite ant žalios mygtukų su juodo kryžiaus žemyn,; žalią mygtuką su brūkšneliu, jei norite nutolinti; arba žalių rodyklių gretimoms žemėlapius.


METAR-TAF: